sensor_id;sensor_type;location;lat;lon;timestamp;P1;durP1;ratioP1;P2;durP2;ratioP2
42036;SDS011;30340;52.004;5.908;2022-10-16T00:01:33;4.50;;;2.85;;
42036;SDS011;30340;52.004;5.908;2022-10-16T00:04:00;4.40;;;2.30;;
42036;SDS011;30340;52.004;5.908;2022-10-16T00:06:27;4.38;;;2.50;;
42036;SDS011;30340;52.004;5.908;2022-10-16T00:08:53;4.75;;;2.70;;
42036;SDS011;30340;52.004;5.908;2022-10-16T00:11:20;2.42;;;1.90;;
42036;SDS011;30340;52.004;5.908;2022-10-16T00:13:48;4.22;;;2.30;;
42036;SDS011;30340;52.004;5.908;2022-10-16T00:16:15;4.15;;;2.40;;
42036;SDS011;30340;52.004;5.908;2022-10-16T00:18:41;5.15;;;2.42;;
42036;SDS011;30340;52.004;5.908;2022-10-16T00:21:08;2.35;;;1.77;;
42036;SDS011;30340;52.004;5.908;2022-10-16T00:23:36;4.50;;;2.05;;
42036;SDS011;30340;52.004;5.908;2022-10-16T00:26:02;4.88;;;2.30;;
42036;SDS011;30340;52.004;5.908;2022-10-16T00:28:30;3.75;;;2.00;;
42036;SDS011;30340;52.004;5.908;2022-10-16T00:30:56;4.05;;;2.38;;
42036;SDS011;30340;52.004;5.908;2022-10-16T00:33:22;3.22;;;2.00;;
42036;SDS011;30340;52.004;5.908;2022-10-16T00:35:48;2.88;;;1.98;;
42036;SDS011;30340;52.004;5.908;2022-10-16T00:38:14;3.58;;;2.30;;
42036;SDS011;30340;52.004;5.908;2022-10-16T00:40:39;3.78;;;2.42;;
42036;SDS011;30340;52.004;5.908;2022-10-16T00:43:32;5.13;;;2.30;;
42036;SDS011;30340;52.004;5.908;2022-10-16T00:46:01;4.15;;;2.30;;
42036;SDS011;30340;52.004;5.908;2022-10-16T00:48:29;4.40;;;2.90;;
42036;SDS011;30340;52.004;5.908;2022-10-16T00:50:55;5.18;;;2.50;;
42036;SDS011;30340;52.004;5.908;2022-10-16T00:53:22;5.13;;;2.53;;
42036;SDS011;30340;52.004;5.908;2022-10-16T00:55:50;3.65;;;2.20;;
42036;SDS011;30340;52.004;5.908;2022-10-16T00:58:16;6.05;;;2.10;;
42036;SDS011;30340;52.004;5.908;2022-10-16T01:00:41;2.10;;;1.77;;
42036;SDS011;30340;52.004;5.908;2022-10-16T01:06:18;4.10;;;2.22;;
42036;SDS011;30340;52.004;5.908;2022-10-16T01:08:54;5.47;;;2.70;;
42036;SDS011;30340;52.004;5.908;2022-10-16T01:11:38;3.30;;;2.17;;
42036;SDS011;30340;52.004;5.908;2022-10-16T01:14:59;3.50;;;2.22;;
42036;SDS011;30340;52.004;5.908;2022-10-16T01:17:15;3.22;;;2.22;;
42036;SDS011;30340;52.004;5.908;2022-10-16T01:20:14;2.92;;;2.25;;
42036;SDS011;30340;52.004;5.908;2022-10-16T01:26:04;3.60;;;2.28;;
42036;SDS011;30340;52.004;5.908;2022-10-16T01:28:56;4.25;;;2.20;;
42036;SDS011;30340;52.004;5.908;2022-10-16T01:31:33;4.15;;;2.20;;
42036;SDS011;30340;52.004;5.908;2022-10-16T01:34:05;3.75;;;2.20;;
42036;SDS011;30340;52.004;5.908;2022-10-16T01:36:59;4.13;;;2.78;;
42036;SDS011;30340;52.004;5.908;2022-10-16T01:39:31;2.97;;;2.60;;
42036;SDS011;30340;52.004;5.908;2022-10-16T01:42:11;3.20;;;2.40;;
42036;SDS011;30340;52.004;5.908;2022-10-16T01:44:47;3.75;;;2.40;;
42036;SDS011;30340;52.004;5.908;2022-10-16T01:47:14;3.50;;;2.53;;
42036;SDS011;30340;52.004;5.908;2022-10-16T01:49:42;3.88;;;2.70;;
42036;SDS011;30340;52.004;5.908;2022-10-16T01:52:10;4.53;;;2.90;;
42036;SDS011;30340;52.004;5.908;2022-10-16T01:54:41;3.53;;;2.33;;
42036;SDS011;30340;52.004;5.908;2022-10-16T01:57:08;3.75;;;2.80;;
42036;SDS011;30340;52.004;5.908;2022-10-16T01:59:37;3.55;;;2.78;;
42036;SDS011;30340;52.004;5.908;2022-10-16T02:04:37;6.53;;;3.40;;
42036;SDS011;30340;52.004;5.908;2022-10-16T02:07:05;5.05;;;3.08;;
42036;SDS011;30340;52.004;5.908;2022-10-16T02:09:32;3.40;;;2.28;;
42036;SDS011;30340;52.004;5.908;2022-10-16T02:12:00;4.00;;;2.63;;
42036;SDS011;30340;52.004;5.908;2022-10-16T02:14:33;4.13;;;2.80;;
42036;SDS011;30340;52.004;5.908;2022-10-16T02:17:00;4.80;;;2.72;;
42036;SDS011;30340;52.004;5.908;2022-10-16T02:19:26;3.15;;;2.60;;
42036;SDS011;30340;52.004;5.908;2022-10-16T02:21:56;3.13;;;2.60;;
42036;SDS011;30340;52.004;5.908;2022-10-16T02:24:27;3.70;;;2.65;;
42036;SDS011;30340;52.004;5.908;2022-10-16T02:27:10;6.03;;;2.80;;
42036;SDS011;30340;52.004;5.908;2022-10-16T02:29:40;3.42;;;2.67;;
42036;SDS011;30340;52.004;5.908;2022-10-16T02:32:13;3.63;;;2.90;;
42036;SDS011;30340;52.004;5.908;2022-10-16T02:34:42;4.00;;;2.33;;
42036;SDS011;30340;52.004;5.908;2022-10-16T02:37:10;3.50;;;2.90;;
42036;SDS011;30340;52.004;5.908;2022-10-16T02:39:36;3.35;;;2.83;;
42036;SDS011;30340;52.004;5.908;2022-10-16T02:42:03;3.88;;;2.60;;
42036;SDS011;30340;52.004;5.908;2022-10-16T02:44:28;4.18;;;2.53;;
42036;SDS011;30340;52.004;5.908;2022-10-16T02:46:54;2.65;;;2.10;;
42036;SDS011;30340;52.004;5.908;2022-10-16T02:49:20;3.33;;;2.00;;
42036;SDS011;30340;52.004;5.908;2022-10-16T02:51:46;3.28;;;2.00;;
42036;SDS011;30340;52.004;5.908;2022-10-16T02:54:11;2.97;;;2.25;;
42036;SDS011;30340;52.004;5.908;2022-10-16T02:56:37;4.88;;;2.60;;
42036;SDS011;30340;52.004;5.908;2022-10-16T02:59:03;4.05;;;2.53;;
42036;SDS011;30340;52.004;5.908;2022-10-16T03:01:29;5.53;;;2.47;;
42036;SDS011;30340;52.004;5.908;2022-10-16T03:03:55;5.22;;;2.40;;
42036;SDS011;30340;52.004;5.908;2022-10-16T03:06:20;5.20;;;2.65;;
42036;SDS011;30340;52.004;5.908;2022-10-16T03:08:46;4.97;;;2.60;;
42036;SDS011;30340;52.004;5.908;2022-10-16T03:11:12;6.32;;;2.70;;
42036;SDS011;30340;52.004;5.908;2022-10-16T03:13:37;3.65;;;2.60;;
42036;SDS011;30340;52.004;5.908;2022-10-16T03:16:03;4.65;;;2.30;;
42036;SDS011;30340;52.004;5.908;2022-10-16T03:18:28;4.15;;;2.40;;
42036;SDS011;30340;52.004;5.908;2022-10-16T03:20:54;2.95;;;2.65;;
42036;SDS011;30340;52.004;5.908;2022-10-16T03:23:19;3.13;;;2.50;;
42036;SDS011;30340;52.004;5.908;2022-10-16T03:25:45;3.92;;;2.63;;
42036;SDS011;30340;52.004;5.908;2022-10-16T03:28:10;3.15;;;2.20;;
42036;SDS011;30340;52.004;5.908;2022-10-16T03:30:36;3.25;;;2.17;;
42036;SDS011;30340;52.004;5.908;2022-10-16T03:33:04;2.97;;;2.10;;
42036;SDS011;30340;52.004;5.908;2022-10-16T03:35:30;3.67;;;2.63;;
42036;SDS011;30340;52.004;5.908;2022-10-16T03:37:55;3.40;;;2.40;;
42036;SDS011;30340;52.004;5.908;2022-10-16T03:40:21;3.35;;;2.58;;
42036;SDS011;30340;52.004;5.908;2022-10-16T03:42:47;2.63;;;2.03;;
42036;SDS011;30340;52.004;5.908;2022-10-16T03:45:12;4.10;;;2.10;;
42036;SDS011;30340;52.004;5.908;2022-10-16T03:47:38;3.88;;;2.17;;
42036;SDS011;30340;52.004;5.908;2022-10-16T03:50:04;2.78;;;2.00;;
42036;SDS011;30340;52.004;5.908;2022-10-16T03:52:30;2.58;;;2.10;;
42036;SDS011;30340;52.004;5.908;2022-10-16T03:54:57;3.10;;;2.20;;
42036;SDS011;30340;52.004;5.908;2022-10-16T03:57:22;2.70;;;2.17;;
42036;SDS011;30340;52.004;5.908;2022-10-16T03:59:48;2.10;;;1.90;;
42036;SDS011;30340;52.004;5.908;2022-10-16T04:02:13;3.03;;;2.45;;
42036;SDS011;30340;52.004;5.908;2022-10-16T04:04:39;2.78;;;2.10;;
42036;SDS011;30340;52.004;5.908;2022-10-16T04:07:04;3.75;;;2.40;;
42036;SDS011;30340;52.004;5.908;2022-10-16T04:09:30;4.32;;;2.25;;
42036;SDS011;30340;52.004;5.908;2022-10-16T04:11:55;4.38;;;2.42;;
42036;SDS011;30340;52.004;5.908;2022-10-16T04:14:21;5.03;;;2.42;;
42036;SDS011;30340;52.004;5.908;2022-10-16T04:16:47;4.68;;;2.35;;
42036;SDS011;30340;52.004;5.908;2022-10-16T04:19:12;3.60;;;2.20;;
42036;SDS011;30340;52.004;5.908;2022-10-16T04:21:38;3.97;;;1.83;;
42036;SDS011;30340;52.004;5.908;2022-10-16T04:24:03;2.83;;;2.08;;
42036;SDS011;30340;52.004;5.908;2022-10-16T04:26:29;2.13;;;1.67;;
42036;SDS011;30340;52.004;5.908;2022-10-16T04:28:55;3.40;;;2.15;;
42036;SDS011;30340;52.004;5.908;2022-10-16T04:31:21;2.72;;;2.00;;
42036;SDS011;30340;52.004;5.908;2022-10-16T04:33:46;2.65;;;2.13;;
42036;SDS011;30340;52.004;5.908;2022-10-16T04:36:12;3.42;;;2.15;;
42036;SDS011;30340;52.004;5.908;2022-10-16T04:38:38;5.10;;;2.47;;
42036;SDS011;30340;52.004;5.908;2022-10-16T04:41:04;2.90;;;1.95;;
42036;SDS011;30340;52.004;5.908;2022-10-16T04:43:31;2.38;;;2.00;;
42036;SDS011;30340;52.004;5.908;2022-10-16T04:45:57;3.67;;;1.90;;
42036;SDS011;30340;52.004;5.908;2022-10-16T04:48:22;2.53;;;1.85;;
42036;SDS011;30340;52.004;5.908;2022-10-16T04:50:48;3.00;;;1.88;;
42036;SDS011;30340;52.004;5.908;2022-10-16T04:53:13;3.83;;;2.00;;
42036;SDS011;30340;52.004;5.908;2022-10-16T04:55:39;2.97;;;2.10;;
42036;SDS011;30340;52.004;5.908;2022-10-16T04:58:06;3.03;;;2.25;;
42036;SDS011;30340;52.004;5.908;2022-10-16T05:00:32;3.22;;;2.03;;
42036;SDS011;30340;52.004;5.908;2022-10-16T05:02:58;3.70;;;2.22;;
42036;SDS011;30340;52.004;5.908;2022-10-16T05:05:25;3.30;;;2.00;;
42036;SDS011;30340;52.004;5.908;2022-10-16T05:07:52;2.85;;;2.22;;
42036;SDS011;30340;52.004;5.908;2022-10-16T05:10:18;2.95;;;1.98;;
42036;SDS011;30340;52.004;5.908;2022-10-16T05:12:44;2.97;;;2.15;;
42036;SDS011;30340;52.004;5.908;2022-10-16T05:15:10;3.50;;;2.10;;
42036;SDS011;30340;52.004;5.908;2022-10-16T05:17:35;2.97;;;2.42;;
42036;SDS011;30340;52.004;5.908;2022-10-16T05:20:01;3.58;;;2.60;;
42036;SDS011;30340;52.004;5.908;2022-10-16T05:22:28;2.92;;;2.20;;
42036;SDS011;30340;52.004;5.908;2022-10-16T05:24:53;2.53;;;1.70;;
42036;SDS011;30340;52.004;5.908;2022-10-16T05:27:19;5.10;;;1.90;;
42036;SDS011;30340;52.004;5.908;2022-10-16T05:29:45;3.38;;;2.50;;
42036;SDS011;30340;52.004;5.908;2022-10-16T05:32:12;3.45;;;2.13;;
42036;SDS011;30340;52.004;5.908;2022-10-16T05:34:38;2.70;;;2.00;;
42036;SDS011;30340;52.004;5.908;2022-10-16T05:37:03;3.83;;;2.15;;
42036;SDS011;30340;52.004;5.908;2022-10-16T05:39:29;3.55;;;2.35;;
42036;SDS011;30340;52.004;5.908;2022-10-16T05:41:54;4.40;;;2.30;;
42036;SDS011;30340;52.004;5.908;2022-10-16T05:44:20;3.20;;;2.08;;
42036;SDS011;30340;52.004;5.908;2022-10-16T05:46:46;4.47;;;2.20;;
42036;SDS011;30340;52.004;5.908;2022-10-16T05:49:11;4.72;;;2.40;;
42036;SDS011;30340;52.004;5.908;2022-10-16T05:51:37;3.47;;;1.95;;
42036;SDS011;30340;52.004;5.908;2022-10-16T05:54:03;1.85;;;1.60;;
42036;SDS011;30340;52.004;5.908;2022-10-16T05:56:28;2.53;;;2.08;;
42036;SDS011;30340;52.004;5.908;2022-10-16T05:58:54;5.32;;;2.50;;
42036;SDS011;30340;52.004;5.908;2022-10-16T06:01:20;3.25;;;2.10;;
42036;SDS011;30340;52.004;5.908;2022-10-16T06:03:48;4.57;;;2.58;;
42036;SDS011;30340;52.004;5.908;2022-10-16T06:06:22;3.28;;;2.40;;
42036;SDS011;30340;52.004;5.908;2022-10-16T06:08:50;4.47;;;2.20;;
42036;SDS011;30340;52.004;5.908;2022-10-16T06:11:21;3.42;;;2.20;;
42036;SDS011;30340;52.004;5.908;2022-10-16T06:13:49;4.25;;;2.38;;
42036;SDS011;30340;52.004;5.908;2022-10-16T06:16:15;4.30;;;2.40;;
42036;SDS011;30340;52.004;5.908;2022-10-16T06:18:41;4.43;;;2.70;;
42036;SDS011;30340;52.004;5.908;2022-10-16T06:21:08;4.00;;;2.78;;
42036;SDS011;30340;52.004;5.908;2022-10-16T06:23:38;3.08;;;2.00;;
42036;SDS011;30340;52.004;5.908;2022-10-16T06:26:05;4.03;;;2.75;;
42036;SDS011;30340;52.004;5.908;2022-10-16T06:28:35;2.75;;;2.30;;
42036;SDS011;30340;52.004;5.908;2022-10-16T06:31:01;2.83;;;2.03;;
42036;SDS011;30340;52.004;5.908;2022-10-16T06:33:27;4.53;;;2.50;;
42036;SDS011;30340;52.004;5.908;2022-10-16T06:35:53;3.65;;;2.33;;
42036;SDS011;30340;52.004;5.908;2022-10-16T06:38:19;4.38;;;2.95;;
42036;SDS011;30340;52.004;5.908;2022-10-16T06:40:44;2.92;;;2.40;;
42036;SDS011;30340;52.004;5.908;2022-10-16T06:43:10;3.95;;;2.35;;
42036;SDS011;30340;52.004;5.908;2022-10-16T06:45:35;2.90;;;2.10;;
42036;SDS011;30340;52.004;5.908;2022-10-16T06:48:01;2.75;;;2.20;;
42036;SDS011;30340;52.004;5.908;2022-10-16T06:50:26;3.70;;;2.20;;
42036;SDS011;30340;52.004;5.908;2022-10-16T06:52:52;4.45;;;2.00;;
42036;SDS011;30340;52.004;5.908;2022-10-16T06:55:17;3.67;;;2.25;;
42036;SDS011;30340;52.004;5.908;2022-10-16T06:57:43;3.08;;;2.00;;
42036;SDS011;30340;52.004;5.908;2022-10-16T07:00:12;2.13;;;1.90;;
42036;SDS011;30340;52.004;5.908;2022-10-16T07:02:37;3.80;;;2.40;;
42036;SDS011;30340;52.004;5.908;2022-10-16T07:05:03;3.42;;;2.60;;
42036;SDS011;30340;52.004;5.908;2022-10-16T07:07:29;3.65;;;2.10;;
42036;SDS011;30340;52.004;5.908;2022-10-16T07:09:54;3.80;;;2.72;;
42036;SDS011;30340;52.004;5.908;2022-10-16T07:12:20;2.92;;;2.08;;
42036;SDS011;30340;52.004;5.908;2022-10-16T07:14:45;4.38;;;2.08;;
42036;SDS011;30340;52.004;5.908;2022-10-16T07:17:11;2.72;;;2.10;;
42036;SDS011;30340;52.004;5.908;2022-10-16T07:19:36;2.15;;;1.73;;
42036;SDS011;30340;52.004;5.908;2022-10-16T07:22:02;4.10;;;2.17;;
42036;SDS011;30340;52.004;5.908;2022-10-16T07:24:28;3.20;;;2.05;;
42036;SDS011;30340;52.004;5.908;2022-10-16T07:26:53;3.47;;;1.98;;
42036;SDS011;30340;52.004;5.908;2022-10-16T07:29:19;4.03;;;1.88;;
42036;SDS011;30340;52.004;5.908;2022-10-16T07:31:46;3.97;;;2.42;;
42036;SDS011;30340;52.004;5.908;2022-10-16T07:34:13;4.32;;;2.13;;
42036;SDS011;30340;52.004;5.908;2022-10-16T07:36:40;3.30;;;1.90;;
42036;SDS011;30340;52.004;5.908;2022-10-16T07:39:05;2.22;;;1.80;;
42036;SDS011;30340;52.004;5.908;2022-10-16T07:41:31;3.08;;;1.88;;
42036;SDS011;30340;52.004;5.908;2022-10-16T07:43:58;5.38;;;2.60;;
42036;SDS011;30340;52.004;5.908;2022-10-16T07:46:26;3.05;;;2.08;;
42036;SDS011;30340;52.004;5.908;2022-10-16T07:48:53;4.55;;;2.00;;
42036;SDS011;30340;52.004;5.908;2022-10-16T07:51:19;2.83;;;2.00;;
42036;SDS011;30340;52.004;5.908;2022-10-16T07:53:46;4.47;;;2.28;;
42036;SDS011;30340;52.004;5.908;2022-10-16T07:56:13;3.33;;;2.08;;
42036;SDS011;30340;52.004;5.908;2022-10-16T07:58:39;2.95;;;1.95;;
42036;SDS011;30340;52.004;5.908;2022-10-16T08:01:05;2.13;;;1.60;;
42036;SDS011;30340;52.004;5.908;2022-10-16T08:03:32;3.20;;;1.90;;
42036;SDS011;30340;52.004;5.908;2022-10-16T08:05:58;3.33;;;1.70;;
42036;SDS011;30340;52.004;5.908;2022-10-16T08:08:25;2.95;;;2.00;;
42036;SDS011;30340;52.004;5.908;2022-10-16T08:10:51;2.10;;;1.60;;
42036;SDS011;30340;52.004;5.908;2022-10-16T08:13:17;4.32;;;2.40;;
42036;SDS011;30340;52.004;5.908;2022-10-16T08:15:43;3.15;;;2.00;;
42036;SDS011;30340;52.004;5.908;2022-10-16T08:18:10;2.58;;;1.48;;
42036;SDS011;30340;52.004;5.908;2022-10-16T08:20:37;2.50;;;1.58;;
42036;SDS011;30340;52.004;5.908;2022-10-16T08:23:02;4.53;;;2.22;;
42036;SDS011;30340;52.004;5.908;2022-10-16T08:25:28;5.30;;;2.10;;
42036;SDS011;30340;52.004;5.908;2022-10-16T08:27:54;2.50;;;1.63;;
42036;SDS011;30340;52.004;5.908;2022-10-16T08:30:20;2.80;;;2.00;;
42036;SDS011;30340;52.004;5.908;2022-10-16T08:32:47;4.43;;;1.90;;
42036;SDS011;30340;52.004;5.908;2022-10-16T08:35:13;4.00;;;1.90;;
42036;SDS011;30340;52.004;5.908;2022-10-16T08:37:41;3.33;;;2.20;;
42036;SDS011;30340;52.004;5.908;2022-10-16T08:40:12;2.90;;;1.67;;
42036;SDS011;30340;52.004;5.908;2022-10-16T08:48:30;2.88;;;1.90;;
42036;SDS011;30340;52.004;5.908;2022-10-16T08:51:00;4.03;;;2.10;;
42036;SDS011;30340;52.004;5.908;2022-10-16T08:54:02;3.42;;;2.03;;
42036;SDS011;30340;52.004;5.908;2022-10-16T08:56:24;3.92;;;2.05;;
42036;SDS011;30340;52.004;5.908;2022-10-16T08:58:51;3.47;;;1.92;;
42036;SDS011;30340;52.004;5.908;2022-10-16T09:01:18;4.03;;;2.22;;
42036;SDS011;30340;52.004;5.908;2022-10-16T09:09:24;3.33;;;1.73;;
42036;SDS011;30340;52.004;5.908;2022-10-16T09:15:16;3.28;;;1.60;;
42036;SDS011;30340;52.004;5.908;2022-10-16T09:18:01;2.95;;;1.88;;
42036;SDS011;30340;52.004;5.908;2022-10-16T09:20:34;2.58;;;1.73;;
42036;SDS011;30340;52.004;5.908;2022-10-16T09:25:28;6.05;;;2.20;;
42036;SDS011;30340;52.004;5.908;2022-10-16T09:27:54;4.35;;;1.80;;
42036;SDS011;30340;52.004;5.908;2022-10-16T09:30:20;7.45;;;3.00;;
42036;SDS011;30340;52.004;5.908;2022-10-16T09:32:49;3.63;;;2.05;;
42036;SDS011;30340;52.004;5.908;2022-10-16T09:35:17;3.28;;;1.67;;
42036;SDS011;30340;52.004;5.908;2022-10-16T09:37:46;5.70;;;2.22;;
42036;SDS011;30340;52.004;5.908;2022-10-16T09:40:25;5.53;;;2.10;;
42036;SDS011;30340;52.004;5.908;2022-10-16T09:43:22;4.07;;;1.92;;
42036;SDS011;30340;52.004;5.908;2022-10-16T09:46:21;4.38;;;1.70;;
42036;SDS011;30340;52.004;5.908;2022-10-16T09:48:47;4.75;;;1.65;;
42036;SDS011;30340;52.004;5.908;2022-10-16T09:51:19;4.90;;;1.83;;
42036;SDS011;30340;52.004;5.908;2022-10-16T09:53:48;3.88;;;1.52;;
42036;SDS011;30340;52.004;5.908;2022-10-16T09:56:33;4.90;;;1.60;;
42036;SDS011;30340;52.004;5.908;2022-10-16T09:59:02;4.15;;;1.77;;
42036;SDS011;30340;52.004;5.908;2022-10-16T10:01:36;5.65;;;1.98;;
42036;SDS011;30340;52.004;5.908;2022-10-16T10:04:07;5.00;;;2.10;;
42036;SDS011;30340;52.004;5.908;2022-10-16T10:06:37;5.38;;;1.90;;
42036;SDS011;30340;52.004;5.908;2022-10-16T10:09:16;4.63;;;1.77;;
42036;SDS011;30340;52.004;5.908;2022-10-16T10:12:01;5.55;;;1.55;;
42036;SDS011;30340;52.004;5.908;2022-10-16T10:14:47;5.47;;;2.03;;
42036;SDS011;30340;52.004;5.908;2022-10-16T10:17:15;4.47;;;1.80;;
42036;SDS011;30340;52.004;5.908;2022-10-16T10:19:58;4.60;;;1.70;;
42036;SDS011;30340;52.004;5.908;2022-10-16T10:30:25;4.57;;;1.80;;
42036;SDS011;30340;52.004;5.908;2022-10-16T10:33:11;6.32;;;2.13;;
42036;SDS011;30340;52.004;5.908;2022-10-16T10:38:51;5.18;;;1.63;;
42036;SDS011;30340;52.004;5.908;2022-10-16T10:41:38;8.45;;;2.13;;
42036;SDS011;30340;52.004;5.908;2022-10-16T10:46:51;4.72;;;1.50;;
42036;SDS011;30340;52.004;5.908;2022-10-16T10:55:19;5.35;;;1.60;;
42036;SDS011;30340;52.004;5.908;2022-10-16T11:06:20;6.22;;;1.85;;
42036;SDS011;30340;52.004;5.908;2022-10-16T11:09:02;7.32;;;1.60;;
42036;SDS011;30340;52.004;5.908;2022-10-16T11:11:38;7.18;;;1.83;;
42036;SDS011;30340;52.004;5.908;2022-10-16T11:14:11;7.40;;;1.88;;
42036;SDS011;30340;52.004;5.908;2022-10-16T11:22:00;6.05;;;1.60;;
42036;SDS011;30340;52.004;5.908;2022-10-16T11:24:32;8.05;;;1.67;;
42036;SDS011;30340;52.004;5.908;2022-10-16T11:27:33;8.40;;;1.80;;
42036;SDS011;30340;52.004;5.908;2022-10-16T11:30:19;5.45;;;1.45;;
42036;SDS011;30340;52.004;5.908;2022-10-16T11:32:56;4.82;;;1.65;;
42036;SDS011;30340;52.004;5.908;2022-10-16T11:35:55;8.20;;;1.88;;
42036;SDS011;30340;52.004;5.908;2022-10-16T11:41:24;5.88;;;1.60;;
42036;SDS011;30340;52.004;5.908;2022-10-16T11:47:27;7.30;;;1.80;;
42036;SDS011;30340;52.004;5.908;2022-10-16T11:50:20;5.43;;;1.35;;
42036;SDS011;30340;52.004;5.908;2022-10-16T11:55:41;4.85;;;1.50;;
42036;SDS011;30340;52.004;5.908;2022-10-16T11:58:12;7.30;;;1.40;;
42036;SDS011;30340;52.004;5.908;2022-10-16T12:00:46;4.28;;;1.30;;
42036;SDS011;30340;52.004;5.908;2022-10-16T12:08:27;6.15;;;1.63;;
42036;SDS011;30340;52.004;5.908;2022-10-16T12:10:53;7.20;;;1.75;;
42036;SDS011;30340;52.004;5.908;2022-10-16T12:13:35;5.60;;;1.58;;
42036;SDS011;30340;52.004;5.908;2022-10-16T12:18:41;6.03;;;1.60;;
42036;SDS011;30340;52.004;5.908;2022-10-16T12:21:11;5.15;;;1.65;;
42036;SDS011;30340;52.004;5.908;2022-10-16T12:23:50;7.15;;;1.98;;
42036;SDS011;30340;52.004;5.908;2022-10-16T12:26:27;5.18;;;1.50;;
42036;SDS011;30340;52.004;5.908;2022-10-16T12:29:12;5.20;;;1.58;;
42036;SDS011;30340;52.004;5.908;2022-10-16T12:31:45;5.72;;;1.50;;
42036;SDS011;30340;52.004;5.908;2022-10-16T12:34:46;7.32;;;1.70;;
42036;SDS011;30340;52.004;5.908;2022-10-16T12:37:08;5.10;;;1.45;;
42036;SDS011;30340;52.004;5.908;2022-10-16T12:39:36;4.70;;;1.23;;
42036;SDS011;30340;52.004;5.908;2022-10-16T12:42:03;4.90;;;1.45;;
42036;SDS011;30340;52.004;5.908;2022-10-16T12:44:34;4.65;;;1.42;;
42036;SDS011;30340;52.004;5.908;2022-10-16T12:47:00;8.10;;;1.50;;
42036;SDS011;30340;52.004;5.908;2022-10-16T12:49:30;7.70;;;1.70;;
42036;SDS011;30340;52.004;5.908;2022-10-16T12:52:00;5.18;;;1.60;;
42036;SDS011;30340;52.004;5.908;2022-10-16T12:54:30;4.78;;;1.67;;
42036;SDS011;30340;52.004;5.908;2022-10-16T13:02:55;5.50;;;1.20;;
42036;SDS011;30340;52.004;5.908;2022-10-16T13:17:25;6.78;;;1.40;;
42036;SDS011;30340;52.004;5.908;2022-10-16T13:20:23;5.50;;;1.30;;
42036;SDS011;30340;52.004;5.908;2022-10-16T13:28:27;6.53;;;1.60;;
42036;SDS011;30340;52.004;5.908;2022-10-16T13:30:59;7.20;;;1.30;;
42036;SDS011;30340;52.004;5.908;2022-10-16T13:33:36;4.15;;;1.42;;
42036;SDS011;30340;52.004;5.908;2022-10-16T13:36:04;4.53;;;1.50;;
42036;SDS011;30340;52.004;5.908;2022-10-16T13:38:35;2.85;;;1.00;;
42036;SDS011;30340;52.004;5.908;2022-10-16T13:41:02;4.57;;;1.42;;
42036;SDS011;30340;52.004;5.908;2022-10-16T13:43:36;8.02;;;1.55;;
42036;SDS011;30340;52.004;5.908;2022-10-16T13:46:14;5.22;;;1.52;;
42036;SDS011;30340;52.004;5.908;2022-10-16T13:48:42;4.65;;;1.42;;
42036;SDS011;30340;52.004;5.908;2022-10-16T13:53:38;3.95;;;1.30;;
42036;SDS011;30340;52.004;5.908;2022-10-16T13:56:05;3.97;;;1.08;;
42036;SDS011;30340;52.004;5.908;2022-10-16T13:58:32;6.03;;;1.25;;
42036;SDS011;30340;52.004;5.908;2022-10-16T14:00:58;3.90;;;1.10;;
42036;SDS011;30340;52.004;5.908;2022-10-16T14:03:30;3.65;;;1.30;;
42036;SDS011;30340;52.004;5.908;2022-10-16T14:05:59;4.07;;;1.40;;
42036;SDS011;30340;52.004;5.908;2022-10-16T14:08:27;3.17;;;1.08;;
42036;SDS011;30340;52.004;5.908;2022-10-16T14:10:55;5.13;;;1.33;;
42036;SDS011;30340;52.004;5.908;2022-10-16T14:13:33;4.38;;;1.15;;
42036;SDS011;30340;52.004;5.908;2022-10-16T14:16:07;7.05;;;1.58;;
42036;SDS011;30340;52.004;5.908;2022-10-16T14:18:35;6.32;;;1.65;;
42036;SDS011;30340;52.004;5.908;2022-10-16T14:21:05;6.05;;;1.58;;
42036;SDS011;30340;52.004;5.908;2022-10-16T14:23:36;3.45;;;1.23;;
42036;SDS011;30340;52.004;5.908;2022-10-16T14:31:01;4.22;;;1.30;;
42036;SDS011;30340;52.004;5.908;2022-10-16T14:33:44;4.75;;;1.40;;
42036;SDS011;30340;52.004;5.908;2022-10-16T14:38:38;7.13;;;1.60;;
42036;SDS011;30340;52.004;5.908;2022-10-16T14:41:06;3.83;;;1.20;;
42036;SDS011;30340;52.004;5.908;2022-10-16T14:43:35;4.60;;;1.25;;
42036;SDS011;30340;52.004;5.908;2022-10-16T14:46:03;5.80;;;1.38;;
42036;SDS011;30340;52.004;5.908;2022-10-16T14:49:13;6.35;;;1.60;;
42036;SDS011;30340;52.004;5.908;2022-10-16T14:51:42;5.40;;;1.30;;
42036;SDS011;30340;52.004;5.908;2022-10-16T14:54:10;4.68;;;1.58;;
42036;SDS011;30340;52.004;5.908;2022-10-16T14:56:50;8.45;;;1.60;;
42036;SDS011;30340;52.004;5.908;2022-10-16T15:01:54;4.68;;;1.13;;
42036;SDS011;30340;52.004;5.908;2022-10-16T15:04:20;3.80;;;1.20;;
42036;SDS011;30340;52.004;5.908;2022-10-16T15:06:45;7.38;;;1.40;;
42036;SDS011;30340;52.004;5.908;2022-10-16T15:09:11;4.40;;;1.38;;
42036;SDS011;30340;52.004;5.908;2022-10-16T15:11:37;3.85;;;0.98;;
42036;SDS011;30340;52.004;5.908;2022-10-16T15:14:03;5.25;;;1.50;;
42036;SDS011;30340;52.004;5.908;2022-10-16T15:16:29;4.82;;;1.13;;
42036;SDS011;30340;52.004;5.908;2022-10-16T15:18:55;3.08;;;1.13;;
42036;SDS011;30340;52.004;5.908;2022-10-16T15:21:22;5.03;;;1.30;;
42036;SDS011;30340;52.004;5.908;2022-10-16T15:23:51;6.05;;;1.30;;
42036;SDS011;30340;52.004;5.908;2022-10-16T15:26:17;5.15;;;1.60;;
42036;SDS011;30340;52.004;5.908;2022-10-16T15:28:42;6.63;;;3.42;;
42036;SDS011;30340;52.004;5.908;2022-10-16T15:31:08;8.35;;;5.32;;
42036;SDS011;30340;52.004;5.908;2022-10-16T15:33:33;6.75;;;3.10;;
42036;SDS011;30340;52.004;5.908;2022-10-16T15:36:00;5.82;;;2.17;;
42036;SDS011;30340;52.004;5.908;2022-10-16T15:38:27;5.53;;;1.80;;
42036;SDS011;30340;52.004;5.908;2022-10-16T15:40:53;4.13;;;1.95;;
42036;SDS011;30340;52.004;5.908;2022-10-16T15:43:20;6.20;;;1.67;;
42036;SDS011;30340;52.004;5.908;2022-10-16T15:46:02;5.00;;;1.80;;
42036;SDS011;30340;52.004;5.908;2022-10-16T15:48:30;3.92;;;1.30;;
42036;SDS011;30340;52.004;5.908;2022-10-16T15:50:57;4.13;;;1.20;;
42036;SDS011;30340;52.004;5.908;2022-10-16T15:53:22;3.80;;;1.20;;
42036;SDS011;30340;52.004;5.908;2022-10-16T15:55:48;4.85;;;1.33;;
42036;SDS011;30340;52.004;5.908;2022-10-16T15:58:14;4.40;;;1.30;;
42036;SDS011;30340;52.004;5.908;2022-10-16T16:00:39;3.45;;;1.30;;
42036;SDS011;30340;52.004;5.908;2022-10-16T16:03:05;3.58;;;1.40;;
42036;SDS011;30340;52.004;5.908;2022-10-16T16:05:31;3.75;;;1.38;;
42036;SDS011;30340;52.004;5.908;2022-10-16T16:07:58;3.63;;;1.45;;
42036;SDS011;30340;52.004;5.908;2022-10-16T16:10:24;4.35;;;1.35;;
42036;SDS011;30340;52.004;5.908;2022-10-16T16:12:50;3.70;;;1.50;;
42036;SDS011;30340;52.004;5.908;2022-10-16T16:15:18;3.58;;;1.38;;
42036;SDS011;30340;52.004;5.908;2022-10-16T16:17:44;2.90;;;1.33;;
42036;SDS011;30340;52.004;5.908;2022-10-16T16:20:10;3.97;;;1.80;;
42036;SDS011;30340;52.004;5.908;2022-10-16T16:22:36;4.10;;;1.38;;
42036;SDS011;30340;52.004;5.908;2022-10-16T16:25:02;3.50;;;1.30;;
42036;SDS011;30340;52.004;5.908;2022-10-16T16:27:27;5.28;;;1.50;;
42036;SDS011;30340;52.004;5.908;2022-10-16T16:29:54;5.57;;;2.38;;
42036;SDS011;30340;52.004;5.908;2022-10-16T16:32:20;5.05;;;2.03;;
42036;SDS011;30340;52.004;5.908;2022-10-16T16:34:46;6.53;;;3.08;;
42036;SDS011;30340;52.004;5.908;2022-10-16T16:37:12;6.05;;;3.33;;
42036;SDS011;30340;52.004;5.908;2022-10-16T16:39:38;7.35;;;3.30;;
42036;SDS011;30340;52.004;5.908;2022-10-16T16:42:03;5.78;;;3.03;;
42036;SDS011;30340;52.004;5.908;2022-10-16T16:44:31;6.32;;;3.58;;
42036;SDS011;30340;52.004;5.908;2022-10-16T16:46:56;6.45;;;3.40;;
42036;SDS011;30340;52.004;5.908;2022-10-16T16:49:22;6.05;;;2.80;;
42036;SDS011;30340;52.004;5.908;2022-10-16T16:51:48;6.75;;;4.00;;
42036;SDS011;30340;52.004;5.908;2022-10-16T16:54:14;6.57;;;3.60;;